Time;durP1;ratioP1;P1;durP2;ratioP2;P2;SDS_P1;SDS_P2;PMS_P1;PMS_P2;Temp;Humidity;BMP_temperature;BMP_pressure;BME280_temperature;BME280_humidity;BME280_pressure;Samples;Min_cycle;Max_cycle;Signal;HPM_P1;HPM_P2
2023/02/18 00:00:09;;;;;;;11.73;4.25;;;9.80;99.90;;;;;;5109251;28;20224;-77
2023/02/18 00:02:37;;;;;;;13.85;3.63;;;9.70;99.90;;;;;;5104065;28;20288;-77
2023/02/18 00:05:05;;;;;;;9.70;2.95;;;9.70;99.90;;;;;;5089120;28;20241;-80
2023/02/18 00:07:34;;;;;;;7.38;3.50;;;9.80;99.90;;;;;;5100070;28;20314;-80
2023/02/18 00:10:03;;;;;;;14.52;5.50;;;9.80;99.90;;;;;;5076100;28;20224;-76
2023/02/18 00:12:31;;;;;;;11.35;3.47;;;9.80;99.90;;;;;;5088496;28;20326;-80
2023/02/18 00:14:58;;;;;;;5.00;2.40;;;9.80;99.90;;;;;;5089518;28;20223;-77
2023/02/18 00:17:25;;;;;;;10.05;3.05;;;9.80;99.90;;;;;;5099689;28;20276;-77
2023/02/18 00:19:54;;;;;;;15.20;4.70;;;9.70;99.90;;;;;;5110426;28;20672;-81
2023/02/18 00:22:21;;;;;;;9.75;3.53;;;9.70;99.90;;;;;;5094289;28;20677;-78
2023/02/18 00:24:48;;;;;;;12.02;4.25;;;9.70;99.90;;;;;;5106289;28;20610;-77
2023/02/18 00:27:19;;;;;;;11.60;3.97;;;9.70;99.90;;;;;;5098851;28;20272;-78
2023/02/18 00:29:49;;;;;;;18.33;3.65;;;9.70;99.90;;;;;;5108891;28;20242;-79
2023/02/18 00:32:17;;;;;;;8.10;2.78;;;9.70;99.90;;;;;;5090045;28;20301;-77
2023/02/18 00:34:44;;;;;;;14.00;4.22;;;9.70;99.90;;;;;;5099897;28;20636;-81
2023/02/18 00:37:13;;;;;;;12.38;4.60;;;9.70;99.90;;;;;;5106599;28;20227;-81
2023/02/18 00:39:40;;;;;;;13.90;4.28;;;9.70;99.90;;;;;;5108867;28;20215;-81
2023/02/18 00:42:09;;;;;;;11.60;3.80;;;9.60;99.90;;;;;;5097030;28;20456;-79
2023/02/18 00:44:38;;;;;;;13.20;4.25;;;9.60;99.90;;;;;;5090821;28;21018;-78
2023/02/18 00:47:05;;;;;;;10.60;4.57;;;9.60;99.90;;;;;;5104446;28;20223;-77
2023/02/18 00:49:32;;;;;;;21.08;10.20;;;9.60;99.90;;;;;;5097339;28;20226;-82
2023/02/18 00:52:00;;;;;;;18.30;10.88;;;9.60;99.90;;;;;;5088278;28;20225;-77
2023/02/18 00:54:28;;;;;;;10.32;4.10;;;9.60;99.90;;;;;;5100733;28;20215;-76
2023/02/18 00:56:55;;;;;;;9.20;3.50;;;9.60;99.90;;;;;;5107575;28;20314;-76
2023/02/18 00:59:22;;;;;;;13.82;3.72;;;9.60;99.90;;;;;;5107731;28;20299;-77
2023/02/18 01:01:49;;;;;;;11.98;4.85;;;9.60;99.90;;;;;;5089997;28;20222;-82
2023/02/18 01:04:16;;;;;;;8.05;4.10;;;9.50;99.90;;;;;;5091218;28;20220;-80
2023/02/18 01:06:45;;;;;;;12.15;3.17;;;9.50;99.90;;;;;;5109252;28;20229;-81
2023/02/18 01:09:13;;;;;;;11.05;3.28;;;9.40;99.90;;;;;;5106306;28;20311;-77
2023/02/18 01:11:47;;;;;;;11.10;4.80;;;9.40;99.90;;;;;;5090671;28;20225;-78
2023/02/18 01:14:15;;;;;;;11.30;3.50;;;9.40;99.90;;;;;;5097345;28;20281;-78
2023/02/18 01:16:42;;;;;;;11.85;3.00;;;9.40;99.90;;;;;;5106988;28;20639;-78
2023/02/18 01:19:09;;;;;;;14.02;3.80;;;9.40;99.90;;;;;;5107137;28;20231;-82
2023/02/18 01:21:36;;;;;;;10.82;6.18;;;9.30;99.90;;;;;;5097544;28;20226;-78
2023/02/18 01:24:05;;;;;;;10.80;4.90;;;9.30;99.90;;;;;;5101168;28;20230;-78
2023/02/18 01:26:32;;;;;;;11.05;3.67;;;9.30;99.90;;;;;;5092878;28;20219;-82
2023/02/18 01:29:00;;;;;;;16.02;8.48;;;9.30;99.90;;;;;;5094986;28;20222;-78
2023/02/18 01:31:27;;;;;;;9.85;3.45;;;9.30;99.90;;;;;;5097185;28;20223;-77
2023/02/18 01:33:57;;;;;;;14.85;3.53;;;9.30;99.90;;;;;;5086971;28;20230;-76
2023/02/18 01:36:24;;;;;;;11.70;4.13;;;9.20;99.90;;;;;;5105321;28;20234;-81
2023/02/18 01:38:52;;;;;;;8.40;3.28;;;9.20;99.90;;;;;;5098420;28;20231;-81
2023/02/18 01:41:20;;;;;;;11.40;3.05;;;9.20;99.90;;;;;;5087457;28;20229;-76
2023/02/18 01:43:47;;;;;;;7.85;3.35;;;9.20;99.90;;;;;;5081275;28;20285;-76
2023/02/18 01:46:18;;;;;;;7.80;3.22;;;9.20;99.90;;;;;;5093582;28;20237;-76
2023/02/18 01:48:49;;;;;;;12.60;5.15;;;9.20;99.90;;;;;;5090121;28;20235;-82
2023/02/18 01:51:19;;;;;;;13.32;7.90;;;9.20;99.90;;;;;;5109466;28;20242;-81
2023/02/18 01:53:53;;;;;;;12.32;5.85;;;9.20;99.90;;;;;;5099349;28;20247;-81
2023/02/18 01:56:26;;;;;;;8.57;2.90;;;9.10;99.90;;;;;;5116209;28;20233;-80
2023/02/18 01:58:57;;;;;;;12.07;4.80;;;9.10;99.90;;;;;;5076674;28;20223;-80
2023/02/18 02:01:27;;;;;;;13.38;5.00;;;9.10;99.90;;;;;;5091654;28;20291;-77
2023/02/18 02:03:54;;;;;;;7.10;3.55;;;9.10;99.90;;;;;;5097833;28;20299;-77
2023/02/18 02:06:24;;;;;;;9.75;4.20;;;9.10;99.90;;;;;;5102705;28;20242;-81
2023/02/18 02:08:57;;;;;;;9.05;3.40;;;9.10;99.90;;;;;;5110305;28;22026;-80
2023/02/18 02:11:54;;;;;;;13.45;6.43;;;9.10;99.90;;;;;;5090797;28;20280;-82
2023/02/18 02:14:35;;;;;;;13.88;4.82;;;9.10;99.90;;;;;;5107190;28;20215;-78
2023/02/18 02:17:08;;;;;;;7.95;3.67;;;9.00;99.90;;;;;;5097913;28;20319;-76
2023/02/18 02:20:06;;;;;;;6.75;3.47;;;9.10;99.90;;;;;;5083882;28;20223;-80
2023/02/18 02:23:14;;;;;;;10.23;5.68;;;9.10;99.90;;;;;;5104462;28;20313;-76
2023/02/18 02:26:09;;;;;;;12.27;3.65;;;9.10;99.90;;;;;;5099151;28;20226;-76
2023/02/18 02:29:09;;;;;;;10.82;4.03;;;9.10;99.90;;;;;;5089184;28;20230;-77
2023/02/18 02:31:58;;;;;;;8.43;3.20;;;9.10;99.90;;;;;;5109661;28;20652;-76
2023/02/18 02:34:39;;;;;;;8.35;2.67;;;9.00;99.90;;;;;;5094469;28;20220;-80
2023/02/18 02:37:13;;;;;;;9.07;3.78;;;9.00;99.90;;;;;;5095737;28;20234;-77
2023/02/18 02:39:47;;;;;;;8.93;3.55;;;9.10;99.90;;;;;;5096075;28;20229;-77
2023/02/18 02:42:24;;;;;;;10.65;3.90;;;9.00;99.90;;;;;;5100837;28;20236;-80
2023/02/18 02:44:57;;;;;;;8.50;3.13;;;9.10;99.90;;;;;;5078270;28;20214;-76
2023/02/18 02:47:34;;;;;;;10.38;3.20;;;9.10;99.90;;;;;;5099843;28;20223;-77
2023/02/18 02:50:07;;;;;;;8.73;4.00;;;9.00;99.90;;;;;;5098033;28;20222;-82
2023/02/18 02:52:38;;;;;;;12.82;2.95;;;9.00;99.90;;;;;;5104359;28;20284;-82
2023/02/18 02:55:09;;;;;;;6.30;2.60;;;9.00;99.90;;;;;;5106902;28;20239;-81
2023/02/18 02:57:46;;;;;;;4.72;2.53;;;9.00;99.90;;;;;;5105837;28;20229;-77
2023/02/18 03:00:21;;;;;;;11.63;3.05;;;9.00;99.90;;;;;;5080042;28;20230;-81
2023/02/18 03:03:21;;;;;;;5.57;2.60;;;9.00;99.90;;;;;;5105851;28;20862;-77
2023/02/18 03:06:04;;;;;;;8.73;3.10;;;9.00;99.90;;;;;;5092438;28;20223;-78
2023/02/18 03:08:41;;;;;;;8.68;3.13;;;8.90;99.90;;;;;;5097865;28;20227;-81
2023/02/18 03:11:11;;;;;;;10.00;3.10;;;8.90;99.90;;;;;;5092681;28;20313;-81
2023/02/18 03:13:51;;;;;;;11.38;3.13;;;8.90;99.90;;;;;;5100880;28;20330;-78
2023/02/18 03:16:27;;;;;;;6.00;2.55;;;8.90;99.90;;;;;;5085407;28;20661;-81
2023/02/18 03:19:05;;;;;;;14.38;6.25;;;9.00;99.90;;;;;;5108520;28;20687;-81
2023/02/18 03:21:40;;;;;;;8.38;3.20;;;8.90;99.90;;;;;;5106659;28;20317;-77
2023/02/18 03:24:14;;;;;;;10.48;3.15;;;8.90;99.90;;;;;;5103559;28;20620;-77
2023/02/18 03:26:48;;;;;;;16.95;3.95;;;9.00;99.90;;;;;;5098312;28;20318;-81
2023/02/18 03:29:18;;;;;;;5.43;2.30;;;8.90;99.90;;;;;;5104867;28;20582;-81
2023/02/18 03:31:50;;;;;;;11.48;2.75;;;8.90;99.90;;;;;;5102670;28;20248;-81
2023/02/18 03:34:22;;;;;;;7.25;2.33;;;8.90;99.90;;;;;;5101139;28;20667;-81
2023/02/18 03:36:51;;;;;;;14.65;3.25;;;8.90;99.90;;;;;;5088242;28;20567;-81
2023/02/18 03:39:21;;;;;;;12.48;3.67;;;8.90;99.90;;;;;;5109514;28;20229;-78
2023/02/18 03:41:48;;;;;;;10.65;3.20;;;8.90;99.90;;;;;;5105627;28;20241;-77
2023/02/18 03:44:15;;;;;;;5.20;2.25;;;8.90;99.90;;;;;;5102798;28;20219;-81
2023/02/18 03:46:44;;;;;;;9.35;5.13;;;8.90;99.90;;;;;;5107634;28;20250;-81
2023/02/18 03:49:12;;;;;;;6.00;2.35;;;8.90;99.90;;;;;;5097013;28;20228;-81
2023/02/18 03:51:40;;;;;;;6.82;3.10;;;8.90;99.90;;;;;;5110609;28;20247;-77
2023/02/18 03:54:08;;;;;;;13.25;2.92;;;8.90;99.90;;;;;;5105921;28;20230;-77
2023/02/18 03:56:47;;;;;;;7.55;3.15;;;8.90;99.90;;;;;;5099860;28;20236;-77
2023/02/18 03:59:15;;;;;;;6.10;2.42;;;9.00;99.90;;;;;;5100150;28;20227;-76
2023/02/18 04:01:42;;;;;;;7.03;2.00;;;8.90;99.90;;;;;;5083344;28;20633;-80
2023/02/18 04:04:09;;;;;;;9.77;2.85;;;9.00;99.90;;;;;;5110073;28;20600;-82
2023/02/18 04:06:36;;;;;;;5.40;2.20;;;8.90;99.90;;;;;;5104056;28;20219;-77
2023/02/18 04:09:07;;;;;;;7.30;2.78;;;8.90;99.90;;;;;;5100765;28;20231;-77
2023/02/18 04:11:37;;;;;;;8.13;2.60;;;8.90;99.90;;;;;;5097453;28;20302;-81
2023/02/18 04:14:04;;;;;;;10.80;2.20;;;8.90;99.90;;;;;;5100835;28;20570;-81
2023/02/18 04:16:31;;;;;;;16.70;5.65;;;8.90;99.90;;;;;;5105898;28;20246;-81
2023/02/18 04:18:58;;;;;;;9.20;4.28;;;8.90;99.90;;;;;;5095770;28;20280;-77
2023/02/18 04:21:27;;;;;;;6.57;2.47;;;8.90;99.90;;;;;;5105498;28;20231;-81
2023/02/18 04:23:55;;;;;;;7.53;2.22;;;8.90;99.90;;;;;;5109381;28;20237;-81
2023/02/18 04:26:22;;;;;;;14.82;3.67;;;8.90;99.90;;;;;;5104109;28;20242;-77
2023/02/18 04:28:51;;;;;;;9.32;2.65;;;8.90;99.90;;;;;;5101001;28;20257;-81
2023/02/18 04:31:18;;;;;;;9.25;2.70;;;8.90;99.90;;;;;;5100754;28;20258;-81
2023/02/18 04:33:45;;;;;;;5.00;2.15;;;8.90;99.90;;;;;;5106673;28;20289;-76
2023/02/18 04:36:12;;;;;;;13.73;3.28;;;8.90;99.90;;;;;;5109210;28;20219;-81
2023/02/18 04:38:42;;;;;;;7.90;2.00;;;9.00;99.90;;;;;;5105064;28;20292;-76
2023/02/18 04:41:12;;;;;;;4.50;1.90;;;8.90;99.90;;;;;;5099482;28;20302;-77
2023/02/18 04:43:39;;;;;;;7.20;2.00;;;9.00;99.90;;;;;;5105715;28;20637;-77
2023/02/18 04:46:08;;;;;;;9.23;2.67;;;8.90;99.90;;;;;;5108765;28;20612;-77
2023/02/18 04:48:36;;;;;;;7.53;3.13;;;8.90;99.90;;;;;;5093890;28;20565;-81
2023/02/18 04:51:03;;;;;;;7.25;3.13;;;8.90;99.90;;;;;;5088500;28;20546;-82
2023/02/18 04:53:34;;;;;;;3.75;2.50;;;8.90;99.90;;;;;;5109951;28;20696;-77
2023/02/18 04:56:01;;;;;;;8.93;3.35;;;8.90;99.90;;;;;;5109435;28;20222;-80
2023/02/18 04:58:28;;;;;;;5.18;2.40;;;8.90;99.90;;;;;;5102287;28;20226;-75
2023/02/18 05:00:59;;;;;;;7.20;1.90;;;8.90;99.90;;;;;;5102777;28;20223;-80
2023/02/18 05:03:28;;;;;;;4.35;1.60;;;8.90;99.90;;;;;;5090732;28;20229;-77
2023/02/18 05:05:58;;;;;;;6.15;3.70;;;8.90;99.90;;;;;;5093302;28;20256;-77
2023/02/18 05:08:25;;;;;;;8.52;3.38;;;8.90;99.90;;;;;;5109206;28;20235;-76
2023/02/18 05:10:53;;;;;;;6.78;1.73;;;8.90;99.90;;;;;;5103232;28;20230;-76
2023/02/18 05:13:21;;;;;;;7.25;1.83;;;8.90;99.90;;;;;;5110480;28;20237;-81
2023/02/18 05:15:48;;;;;;;7.43;2.17;;;8.90;99.90;;;;;;5118363;28;20253;-81
2023/02/18 05:18:16;;;;;;;6.65;1.95;;;8.90;99.90;;;;;;5108446;28;20664;-81
2023/02/18 05:20:44;;;;;;;4.10;2.20;;;8.90;99.90;;;;;;5125046;28;20248;-77
2023/02/18 05:23:11;;;;;;;5.60;1.73;;;8.90;99.90;;;;;;5118059;28;20282;-81
2023/02/18 05:25:38;;;;;;;8.25;2.40;;;8.90;99.90;;;;;;5117954;28;20239;-81
2023/02/18 05:28:06;;;;;;;5.25;2.08;;;8.90;99.90;;;;;;5094409;28;20303;-77
2023/02/18 05:30:33;;;;;;;12.55;5.38;;;8.90;99.90;;;;;;5091098;28;20224;-81
2023/02/18 05:33:00;;;;;;;5.32;1.98;;;8.90;99.90;;;;;;5092162;28;20228;-76
2023/02/18 05:35:27;;;;;;;5.07;2.03;;;8.90;99.90;;;;;;5088632;28;20220;-77
2023/02/18 05:37:56;;;;;;;3.63;1.70;;;8.90;99.90;;;;;;5090144;28;20269;-77
2023/02/18 05:40:24;;;;;;;7.43;2.40;;;9.00;99.90;;;;;;5091036;28;20269;-76
2023/02/18 05:42:51;;;;;;;10.35;5.45;;;9.00;99.90;;;;;;5087373;28;20243;-81
2023/02/18 05:45:22;;;;;;;6.82;2.22;;;9.10;99.90;;;;;;5086774;28;20645;-77
2023/02/18 05:47:49;;;;;;;5.35;1.88;;;9.00;99.90;;;;;;5085433;28;20220;-81
2023/02/18 05:50:21;;;;;;;2.60;2.08;;;9.10;99.90;;;;;;5071477;28;20219;-81
2023/02/18 05:52:48;;;;;;;2.03;1.70;;;9.10;99.90;;;;;;5087477;28;20283;-81
2023/02/18 05:55:17;;;;;;;6.85;2.30;;;9.10;99.90;;;;;;5091836;28;20246;-81
2023/02/18 05:57:45;;;;;;;3.83;1.70;;;9.10;99.90;;;;;;5083307;28;20315;-81
2023/02/18 06:00:13;;;;;;;6.68;2.10;;;9.10;99.90;;;;;;5082414;28;20220;-81
2023/02/18 06:02:44;;;;;;;4.85;2.17;;;9.10;99.90;;;;;;5082422;28;20439;-81
2023/02/18 06:05:11;;;;;;;6.15;1.70;;;9.20;99.90;;;;;;5080528;28;20215;-81
2023/02/18 06:07:38;;;;;;;7.05;2.22;;;9.20;99.90;;;;;;5079208;28;20297;-77
2023/02/18 06:10:07;;;;;;;3.80;2.05;;;9.20;99.90;;;;;;5077296;28;20235;-81
2023/02/18 06:12:36;;;;;;;8.98;2.33;;;9.20;99.90;;;;;;5076708;28;20289;-77
2023/02/18 06:15:05;;;;;;;6.07;2.75;;;9.20;99.90;;;;;;5076995;28;20252;-78
2023/02/18 06:17:32;;;;;;;3.83;2.67;;;9.20;99.90;;;;;;5077702;28;20527;-77
2023/02/18 06:19:59;;;;;;;7.85;2.42;;;9.20;99.90;;;;;;5076132;28;20228;-81
2023/02/18 06:22:26;;;;;;;5.45;1.85;;;9.30;99.90;;;;;;5075318;28;20242;-76
2023/02/18 06:24:53;;;;;;;3.60;1.50;;;9.30;99.90;;;;;;5064269;28;20289;-77
2023/02/18 06:27:22;;;;;;;6.50;2.80;;;9.30;99.90;;;;;;5075267;28;20228;-81
2023/02/18 06:29:51;;;;;;;5.25;1.77;;;9.30;99.90;;;;;;5074908;28;20227;-81
2023/02/18 06:32:19;;;;;;;7.43;1.70;;;9.40;99.90;;;;;;5072054;28;20216;-76
2023/02/18 06:34:46;;;;;;;3.95;2.03;;;9.40;99.90;;;;;;5065900;28;20220;-81
2023/02/18 06:37:13;;;;;;;5.18;2.47;;;9.40;99.90;;;;;;5074998;28;20228;-81
2023/02/18 06:39:40;;;;;;;10.85;1.83;;;9.40;99.90;;;;;;5075269;28;20224;-77
2023/02/18 06:42:08;;;;;;;2.47;1.60;;;9.40;99.90;;;;;;5074630;28;20220;-77
2023/02/18 06:44:35;;;;;;;3.58;1.52;;;9.40;99.90;;;;;;5075594;28;20243;-80
2023/02/18 06:47:12;;;;;;;10.25;2.30;;;9.40;99.90;;;;;;5074495;28;20231;-81
2023/02/18 06:49:42;;;;;;;2.95;1.65;;;9.40;99.90;;;;;;5074927;28;20262;-76
2023/02/18 06:52:09;;;;;;;2.55;1.60;;;9.40;99.90;;;;;;5073819;28;20429;-76
2023/02/18 06:54:37;;;;;;;3.97;2.15;;;9.50;99.90;;;;;;5073540;28;20593;-81
2023/02/18 06:57:04;;;;;;;3.30;1.92;;;9.50;99.90;;;;;;5074142;28;20223;-81
2023/02/18 06:59:33;;;;;;;8.73;3.60;;;9.50;99.90;;;;;;5074687;28;20568;-81
2023/02/18 07:02:00;;;;;;;6.47;2.10;;;9.50;99.90;;;;;;5074887;28;20231;-77
2023/02/18 07:04:29;;;;;;;7.32;2.60;;;9.50;99.90;;;;;;5072546;28;20273;-78
2023/02/18 07:07:00;;;;;;;3.97;1.80;;;9.60;99.90;;;;;;5073634;28;20234;-76
2023/02/18 07:09:28;;;;;;;4.63;2.10;;;9.60;99.90;;;;;;5073071;28;20231;-81
2023/02/18 07:11:57;;;;;;;6.40;2.05;;;9.60;99.90;;;;;;5073135;28;20219;-77
2023/02/18 07:14:27;;;;;;;8.18;2.47;;;9.60;99.90;;;;;;5071759;28;20309;-76
2023/02/18 07:16:55;;;;;;;3.92;1.83;;;9.60;99.90;;;;;;5073776;28;20236;-81
2023/02/18 07:19:28;;;;;;;3.17;1.52;;;9.60;99.90;;;;;;5063845;28;20231;-81
2023/02/18 07:21:56;;;;;;;3.35;1.70;;;9.70;99.90;;;;;;5073348;28;20733;-76
2023/02/18 07:24:24;;;;;;;10.60;2.10;;;9.60;99.90;;;;;;5072031;28;20234;-77
2023/02/18 07:26:55;;;;;;;8.63;2.75;;;9.60;99.90;;;;;;5061214;28;20228;-76
2023/02/18 07:29:25;;;;;;;4.40;1.75;;;9.60;99.90;;;;;;5073633;28;20307;-76
2023/02/18 07:31:52;;;;;;;2.72;2.50;;;9.70;99.90;;;;;;5072852;28;20223;-77
2023/02/18 07:34:20;;;;;;;6.57;3.20;;;9.70;99.90;;;;;;5073868;28;20235;-81
2023/02/18 07:36:51;;;;;;;5.57;2.50;;;9.70;99.90;;;;;;5073100;28;20216;-82
2023/02/18 07:39:21;;;;;;;6.07;3.10;;;9.70;99.90;;;;;;5072751;28;20231;-77
2023/02/18 07:41:48;;;;;;;4.50;2.05;;;9.70;99.90;;;;;;5074107;28;20310;-82
2023/02/18 07:44:18;;;;;;;4.97;2.88;;;9.80;99.90;;;;;;5062372;28;20224;-76
2023/02/18 07:46:45;;;;;;;9.27;4.70;;;9.80;99.90;;;;;;5072905;28;20323;-76
2023/02/18 07:49:13;;;;;;;8.27;3.60;;;9.80;99.90;;;;;;5072189;28;20235;-77
2023/02/18 07:51:40;;;;;;;7.80;4.20;;;9.80;99.90;;;;;;5073530;28;20322;-82
2023/02/18 07:54:08;;;;;;;4.20;2.40;;;9.90;99.90;;;;;;5071831;28;20282;-77
2023/02/18 07:56:36;;;;;;;4.05;1.95;;;9.90;99.90;;;;;;5073082;28;20235;-82
2023/02/18 07:59:05;;;;;;;2.92;1.50;;;9.90;99.90;;;;;;5075382;28;20232;-78
2023/02/18 08:01:32;;;;;;;3.05;1.60;;;9.90;99.90;;;;;;5072459;28;20216;-82
2023/02/18 08:04:10;;;;;;;6.82;1.67;;;9.90;99.90;;;;;;5074214;28;20289;-82
2023/02/18 08:06:42;;;;;;;6.47;2.50;;;9.90;99.90;;;;;;5075426;28;20312;-77
2023/02/18 08:09:11;;;;;;;3.13;1.50;;;9.90;99.90;;;;;;5075938;28;20227;-81
2023/02/18 08:11:38;;;;;;;4.57;1.95;;;9.90;99.90;;;;;;5077471;28;20224;-77
2023/02/18 08:14:05;;;;;;;3.40;1.70;;;9.90;99.90;;;;;;5076173;28;20224;-82
2023/02/18 08:16:33;;;;;;;4.20;1.33;;;9.90;99.90;;;;;;5077144;28;20212;-77
2023/02/18 08:19:02;;;;;;;3.97;2.20;;;9.90;99.90;;;;;;5076741;28;20254;-81
2023/02/18 08:21:29;;;;;;;4.40;2.28;;;9.90;99.90;;;;;;5077136;28;20673;-83
2023/02/18 08:23:58;;;;;;;6.88;1.88;;;10.00;99.90;;;;;;5076256;28;20634;-82
2023/02/18 08:26:28;;;;;;;2.85;1.50;;;10.00;99.90;;;;;;5076127;28;20231;-81
2023/02/18 08:28:57;;;;;;;2.55;1.35;;;10.00;99.90;;;;;;5074564;28;20224;-80
2023/02/18 08:31:27;;;;;;;3.20;1.35;;;10.00;99.90;;;;;;5076445;28;20250;-81
2023/02/18 08:33:55;;;;;;;5.13;2.13;;;10.00;99.90;;;;;;5076303;28;20273;-82
2023/02/18 08:36:23;;;;;;;4.43;2.10;;;10.00;99.90;;;;;;5076249;28;20265;-77
2023/02/18 08:38:50;;;;;;;4.95;3.25;;;9.90;99.90;;;;;;5074530;28;20661;-82
2023/02/18 08:41:18;;;;;;;7.35;4.13;;;9.90;99.90;;;;;;5075652;28;20272;-76
2023/02/18 08:43:47;;;;;;;9.00;4.65;;;9.90;99.90;;;;;;5075348;28;20564;-76
2023/02/18 08:46:15;;;;;;;5.70;2.90;;;9.90;99.90;;;;;;5074505;28;20274;-76
2023/02/18 08:48:51;;;;;;;8.75;2.55;;;10.00;99.90;;;;;;5075621;28;20541;-81
2023/02/18 08:51:21;;;;;;;5.93;1.75;;;9.90;99.90;;;;;;5064866;28;20700;-76
2023/02/18 08:53:48;;;;;;;3.40;1.65;;;9.90;99.90;;;;;;5074598;28;20212;-76
2023/02/18 08:56:16;;;;;;;6.65;1.98;;;9.90;99.90;;;;;;5075077;28;20220;-76
2023/02/18 08:58:44;;;;;;;3.97;1.35;;;9.90;99.90;;;;;;5075324;28;20670;-81
2023/02/18 09:01:13;;;;;;;2.83;1.23;;;9.90;99.90;;;;;;5074611;28;20231;-81
2023/02/18 09:03:41;;;;;;;7.57;2.10;;;9.90;99.90;;;;;;5075735;28;20224;-81
2023/02/18 09:06:08;;;;;;;8.07;2.10;;;9.90;99.90;;;;;;5075035;28;20219;-80
2023/02/18 09:08:35;;;;;;;3.97;1.95;;;9.80;99.90;;;;;;5075426;28;20228;-80
2023/02/18 09:11:04;;;;;;;2.28;1.83;;;9.80;99.90;;;;;;5074646;28;20315;-76
2023/02/18 09:13:32;;;;;;;3.25;1.85;;;9.80;99.90;;;;;;5074338;28;20330;-82
2023/02/18 09:16:02;;;;;;;7.00;2.80;;;9.80;99.90;;;;;;5075112;28;20315;-82
2023/02/18 09:18:34;;;;;;;4.72;1.88;;;9.80;99.90;;;;;;5073468;28;20219;-81
2023/02/18 09:21:01;;;;;;;6.43;1.60;;;9.70;99.90;;;;;;5073932;28;20290;-82
2023/02/18 09:23:31;;;;;;;5.03;2.00;;;9.70;99.90;;;;;;5074037;28;20330;-82
2023/02/18 09:25:58;;;;;;;3.13;1.60;;;9.70;99.90;;;;;;5074138;28;20237;-77
2023/02/18 09:28:26;;;;;;;8.18;2.40;;;9.70;99.90;;;;;;5061595;28;20543;-77
2023/02/18 09:30:54;;;;;;;6.32;2.25;;;9.70;99.90;;;;;;5073305;28;20239;-77
2023/02/18 09:33:22;;;;;;;4.45;2.40;;;9.70;99.90;;;;;;5073415;28;20282;-77
2023/02/18 09:35:50;;;;;;;2.70;1.80;;;9.70;99.90;;;;;;5074318;28;20648;-76
2023/02/18 09:38:18;;;;;;;5.00;2.38;;;9.70;99.90;;;;;;5072916;28;20227;-81
2023/02/18 09:40:48;;;;;;;4.60;2.13;;;9.60;99.90;;;;;;5073396;28;20212;-82
2023/02/18 09:43:24;;;;;;;4.60;2.08;;;9.60;99.90;;;;;;5073807;28;20231;-82
2023/02/18 09:45:53;;;;;;;8.52;3.20;;;9.60;99.90;;;;;;5074186;28;20220;-83
2023/02/18 09:48:26;;;;;;;4.00;2.38;;;9.60;99.90;;;;;;5072445;28;20688;-77
2023/02/18 09:50:55;;;;;;;6.15;2.47;;;9.60;99.90;;;;;;5074541;28;20228;-82
2023/02/18 09:53:24;;;;;;;6.75;3.67;;;9.60;99.90;;;;;;5073607;28;20319;-77
2023/02/18 09:55:53;;;;;;;7.07;3.70;;;9.50;99.90;;;;;;5074007;28;20224;-83
2023/02/18 09:58:28;;;;;;;8.25;4.50;;;9.60;99.90;;;;;;5052263;28;20319;-77
2023/02/18 10:01:05;;;;;;;9.68;5.07;;;9.60;99.90;;;;;;5073095;28;20284;-82
2023/02/18 10:03:40;;;;;;;8.00;4.93;;;9.60;99.90;;;;;;5079233;28;20212;-83
2023/02/18 10:06:16;;;;;;;9.93;4.22;;;9.60;99.90;;;;;;5073382;28;20215;-78
2023/02/18 10:08:45;;;;;;;7.57;3.30;;;9.60;99.90;;;;;;5071576;28;20228;-77
2023/02/18 10:11:27;;;;;;;8.35;2.88;;;9.50;99.90;;;;;;5063809;28;20311;-77
2023/02/18 10:13:59;;;;;;;7.25;2.70;;;9.50;99.90;;;;;;5072708;28;20679;-77
2023/02/18 10:16:29;;;;;;;8.98;3.20;;;9.50;99.90;;;;;;5073572;28;20247;-82
2023/02/18 10:19:01;;;;;;;3.80;2.60;;;9.50;99.90;;;;;;5072654;28;20224;-82
2023/02/18 10:21:34;;;;;;;4.28;2.80;;;9.40;99.90;;;;;;5073641;28;20524;-81
2023/02/18 10:24:05;;;;;;;9.23;3.97;;;9.50;99.90;;;;;;5074151;28;20634;-82
2023/02/18 10:26:42;;;;;;;2.97;2.38;;;9.50;99.90;;;;;;5072608;28;20234;-77
2023/02/18 10:29:16;;;;;;;4.82;3.17;;;9.50;99.90;;;;;;5071324;28;20228;-78
2023/02/18 10:31:48;;;;;;;6.53;2.70;;;9.50;99.90;;;;;;5072299;28;20224;-77
2023/02/18 10:34:24;;;;;;;7.63;4.55;;;9.50;99.90;;;;;;5073148;28;20215;-77
2023/02/18 10:36:57;;;;;;;14.02;6.18;;;9.50;99.90;;;;;;5072912;28;20244;-77
2023/02/18 10:39:51;;;;;;;9.95;4.35;;;9.50;99.90;;;;;;5073392;28;20301;-82
2023/02/18 10:42:34;;;;;;;8.13;3.63;;;9.50;99.90;;;;;;5072360;28;20273;-77
2023/02/18 10:45:22;;;;;;;6.90;2.70;;;9.50;99.90;;;;;;5063065;28;20224;-77
2023/02/18 10:48:04;;;;;;;10.55;2.95;;;9.50;99.90;;;;;;5052010;28;20223;-82
2023/02/18 10:50:38;;;;;;;4.93;3.00;;;9.50;99.90;;;;;;5053264;28;20243;-83
2023/02/18 10:53:16;;;;;;;3.90;2.40;;;9.50;99.90;;;;;;5059400;28;20238;-82
2023/02/18 10:55:48;;;;;;;7.65;2.28;;;9.50;99.90;;;;;;5074463;28;20243;-82
2023/02/18 10:58:32;;;;;;;7.90;3.78;;;9.50;99.90;;;;;;5075697;28;20251;-77
2023/02/18 11:01:03;;;;;;;3.95;2.45;;;9.50;99.90;;;;;;5071313;28;20219;-76
2023/02/18 11:03:43;;;;;;;7.20;2.88;;;9.50;99.90;;;;;;5073828;28;20311;-82
2023/02/18 11:06:24;;;;;;;7.00;2.72;;;9.50;99.90;;;;;;5072157;28;20281;-77
2023/02/18 11:08:54;;;;;;;6.35;2.70;;;9.50;99.90;;;;;;5073385;28;20270;-83
2023/02/18 11:11:25;;;;;;;5.45;2.35;;;9.50;99.90;;;;;;5072860;28;20228;-82
2023/02/18 11:13:54;;;;;;;3.10;2.13;;;9.50;99.90;;;;;;5072736;28;20660;-78
2023/02/18 11:16:38;;;;;;;13.07;5.90;;;9.50;99.90;;;;;;5071202;28;20641;-78
2023/02/18 11:19:05;;;;;;;5.70;3.95;;;9.50;99.90;;;;;;5071486;28;20227;-78
2023/02/18 11:21:36;;;;;;;7.97;6.25;;;9.60;99.90;;;;;;5071888;28;20241;-78
2023/02/18 11:24:15;;;;;;;4.50;3.92;;;9.60;99.90;;;;;;5072324;28;20219;-82
2023/02/18 11:26:43;;;;;;;4.85;3.17;;;9.60;99.90;;;;;;5072486;28;20306;-76
2023/02/18 11:29:22;;;;;;;5.45;3.25;;;9.60;99.90;;;;;;5071902;28;20243;-84
2023/02/18 11:31:51;;;;;;;2.67;2.28;;;9.60;99.90;;;;;;5055431;28;20223;-77
2023/02/18 11:34:22;;;;;;;6.50;2.97;;;9.60;99.90;;;;;;5072543;28;20223;-84
2023/02/18 11:36:51;;;;;;;4.15;2.50;;;9.50;99.90;;;;;;5072820;28;20567;-84
2023/02/18 11:39:23;;;;;;;3.47;2.05;;;9.50;99.90;;;;;;5060830;28;20228;-78
2023/02/18 11:41:56;;;;;;;2.60;2.40;;;9.50;99.90;;;;;;5073552;28;20311;-78
2023/02/18 11:44:27;;;;;;;4.43;2.65;;;9.40;99.90;;;;;;5075845;28;20235;-84
2023/02/18 11:47:02;;;;;;;8.35;4.20;;;9.50;99.90;;;;;;5077025;28;20298;-80
2023/02/18 11:49:30;;;;;;;3.88;3.17;;;9.50;99.90;;;;;;5075809;28;20239;-84
2023/02/18 11:52:06;;;;;;;6.97;3.65;;;9.50;99.90;;;;;;5076682;28;20518;-83
2023/02/18 11:54:35;;;;;;;2.92;2.70;;;9.60;99.90;;;;;;5077346;28;20585;-83
2023/02/18 11:57:04;;;;;;;3.30;2.60;;;9.60;99.90;;;;;;5080189;28;20228;-83
2023/02/18 11:59:35;;;;;;;2.25;2.05;;;9.60;99.90;;;;;;5076712;28;20645;-82
2023/02/18 12:02:11;;;;;;;2.05;1.65;;;9.60;99.90;;;;;;5077487;28;20231;-77
2023/02/18 12:04:43;;;;;;;5.32;2.30;;;9.70;99.90;;;;;;5067492;28;20285;-77
2023/02/18 12:07:19;;;;;;;2.45;2.05;;;9.60;99.90;;;;;;5076453;28;20681;-82
2023/02/18 12:09:55;;;;;;;2.55;2.22;;;9.60;99.90;;;;;;5078676;28;20222;-82
2023/02/18 12:12:28;;;;;;;3.38;2.97;;;9.70;99.90;;;;;;5077117;28;20233;-77
2023/02/18 12:15:18;;;;;;;2.50;2.30;;;9.70;99.90;;;;;;5077132;28;20230;-82
2023/02/18 12:18:06;;;;;;;4.30;2.45;;;9.70;99.90;;;;;;5076124;28;20595;-81
2023/02/18 12:20:51;;;;;;;2.15;1.92;;;9.80;99.90;;;;;;5074292;28;20224;-80
2023/02/18 12:23:29;;;;;;;2.58;2.38;;;9.80;99.90;;;;;;5077598;28;20285;-77
2023/02/18 12:26:21;;;;;;;3.47;2.33;;;9.90;99.90;;;;;;5075358;28;20520;-82
2023/02/18 12:29:19;;;;;;;2.60;2.40;;;10.00;99.90;;;;;;5085276;28;20231;-81
2023/02/18 12:32:00;;;;;;;4.85;2.58;;;10.00;99.90;;;;;;5082896;28;20532;-82
2023/02/18 12:34:42;;;;;;;2.42;2.25;;;10.10;99.90;;;;;;5081229;28;20216;-78
2023/02/18 12:37:27;;;;;;;3.90;3.53;;;10.20;99.90;;;;;;5076911;28;20657;-78
2023/02/18 12:40:08;;;;;;;5.13;4.65;;;10.20;99.90;;;;;;5079930;28;20219;-82
2023/02/18 12:42:54;;;;;;;4.60;4.20;;;10.30;99.90;;;;;;5082816;28;20255;-77
2023/02/18 12:45:38;;;;;;;4.25;3.58;;;10.40;99.90;;;;;;5076600;28;20216;-78
2023/02/18 12:48:31;;;;;;;5.30;4.80;;;10.50;99.90;;;;;;5049339;28;20573;-77
2023/02/18 12:51:21;;;;;;;6.88;5.40;;;10.50;99.90;;;;;;5064764;28;20236;-78
2023/02/18 12:54:22;;;;;;;6.65;5.45;;;10.60;99.90;;;;;;5055214;28;20313;-78
2023/02/18 12:57:27;;;;;;;6.10;5.60;;;10.70;99.90;;;;;;5042831;28;20224;-77
2023/02/18 13:00:27;;;;;;;5.25;4.75;;;10.70;99.90;;;;;;5055678;28;20715;-77
2023/02/18 13:03:14;;;;;;;5.40;4.90;;;10.90;99.90;;;;;;5046378;28;20252;-81
2023/02/18 13:05:47;;;;;;;6.07;5.53;;;10.90;99.90;;;;;;5056079;28;20216;-77
2023/02/18 13:11:52;;;;;;;6.78;5.43;;;11.00;99.90;;;;;;5043988;28;20539;-77
2023/02/18 13:14:22;;;;;;;5.78;5.00;;;11.10;99.90;;;;;;5054879;28;20255;-77
2023/02/18 13:16:55;;;;;;;5.10;4.70;;;11.20;99.90;;;;;;5054842;28;20224;-78
2023/02/18 13:19:27;;;;;;;5.45;4.95;;;11.20;99.90;;;;;;5054659;28;20228;-77